Angon — CQPQ — position and weather

sailwx.info

Track history (hours):
 
Tides and Currents Weather Stations Pressure Air Temp Water Temp Dewpoint Dewpoint Depression Visibility Wind Speed Wind Dir Waves Ship Positions

Angon

Last reported at 2018-Jun-19 01:01 UTC. Time now 2018-Jun-19 01:22 UTC.
Position N 45°57' W 002°17'.

Length 89 m; draft 4.9 m.

Type: Ship. MMSI: 255802380.

Date/timePositionNaut miles runAvg speedWind from/ knotsBaromVisibWave heightAir tempDewpointWater temp
2018-Jun-19 01:01N 45°57' W 002°17'5 9.1
2018-Jun-19 00:27N 45°55' W 002°24'4 9.2
2018-Jun-19 00:01N 45°54' W 002°29'5 9.1
2018-Jun-18 23:29N 45°52' W 002°36'16 8.9
2018-Jun-18 21:42N 45°45' W 002°57'3 8.7
2018-Jun-18 21:24N 45°44' W 002°60'3 8.8
2018-Jun-18 21:00N 45°43' W 003°05'6 8.7
2018-Jun-18 20:21N 45°40' W 003°12'  
2018-Jun-14 15:39N 41°07' W 008°46'1 5.8
2018-Jun-14 15:27N 41°08' W 008°45'3 5.7
2018-Jun-14 15:00N 41°10' W 008°43'2 3.6
2018-Jun-14 14:30N 41°11' W 008°41'0 0.0
2018-Jun-14 13:59N 41°11' W 008°41'0 0.0
2018-Jun-14 13:29N 41°11' W 008°41'0 0.0
2018-Jun-14 12:59N 41°11' W 008°41'0 0.0
2018-Jun-14 12:29N 41°11' W 008°41'0 0.0
2018-Jun-14 11:53N 41°11' W 008°41'0 0.0
2018-Jun-14 11:26N 41°11' W 008°41'0 0.0
2018-Jun-14 10:59N 41°11' W 008°41'0 0.0
2018-Jun-14 10:29N 41°11' W 008°41'0 0.0
2018-Jun-14 09:59N 41°11' W 008°41'0 0.0
2018-Jun-14 09:29N 41°11' W 008°41'0 0.0
2018-Jun-14 08:59N 41°11' W 008°41'0 0.0
2018-Jun-14 08:29N 41°11' W 008°41'0 0.0
2018-Jun-14 07:59N 41°11' W 008°41'0 0.0
2018-Jun-14 07:29N 41°11' W 008°41'0 0.0
2018-Jun-14 06:59N 41°11' W 008°41'0 0.0
2018-Jun-14 06:29N 41°11' W 008°41'0 0.0
2018-Jun-14 05:59N 41°11' W 008°41'0 0.0
2018-Jun-14 05:29N 41°11' W 008°41'0 0.0
2018-Jun-14 04:56N 41°11' W 008°41'0 0.0
2018-Jun-14 04:29N 41°11' W 008°41'0 0.0
2018-Jun-14 03:59N 41°11' W 008°41'0 0.0
2018-Jun-14 03:26N 41°11' W 008°41'0 0.0
2018-Jun-14 02:56N 41°11' W 008°41'0 0.0
2018-Jun-14 02:29N 41°11' W 008°41'0 0.0
2018-Jun-14 01:59N 41°11' W 008°41'0 0.0
2018-Jun-14 01:29N 41°11' W 008°41'0 0.0
2018-Jun-14 00:56N 41°11' W 008°41'0 0.0
2018-Jun-14 00:29N 41°11' W 008°41'0 0.0
2018-Jun-13 23:59N 41°11' W 008°41'0 0.0
2018-Jun-13 23:17N 41°11' W 008°41'0 0.0
2018-Jun-13 22:53N 41°11' W 008°41'0 0.0
2018-Jun-13 22:29N 41°11' W 008°41'0 0.0
2018-Jun-13 21:56N 41°11' W 008°41'0 0.0
2018-Jun-13 21:29N 41°11' W 008°41'0 0.0
2018-Jun-13 20:56N 41°11' W 008°41'0 0.0
2018-Jun-13 20:29N 41°11' W 008°41'0 0.0
2018-Jun-13 19:59N 41°11' W 008°41'0 0.0
2018-Jun-13 19:29N 41°11' W 008°41'0 0.0
2018-Jun-13 18:56N 41°11' W 008°41'0 0.0
2018-Jun-13 18:26N 41°11' W 008°41'0 0.0
2018-Jun-13 17:56N 41°11' W 008°41'0 0.0
2018-Jun-13 17:26N 41°11' W 008°41'0 0.0
2018-Jun-13 16:56N 41°11' W 008°41'0 0.0
2018-Jun-13 16:29N 41°11' W 008°41'0 0.0
2018-Jun-13 15:59N 41°11' W 008°41'0 0.0
2018-Jun-13 15:26N 41°11' W 008°41'0 0.0
2018-Jun-13 14:56N 41°11' W 008°41'0 0.0
2018-Jun-13 14:29N 41°11' W 008°41'0 0.0
2018-Jun-13 13:59N 41°11' W 008°41'0 0.0
2018-Jun-13 13:29N 41°11' W 008°41'0 0.0
2018-Jun-13 12:59N 41°11' W 008°41'0 0.0
2018-Jun-13 12:26N 41°11' W 008°41'0 0.0
2018-Jun-13 11:56N 41°11' W 008°41'0 0.0
2018-Jun-13 11:29N 41°11' W 008°41'0 0.0
2018-Jun-13 10:50N 41°11' W 008°41'0 0.0
2018-Jun-13 10:26N 41°11' W 008°41'0 0.0
2018-Jun-13 09:59N 41°11' W 008°41'0 0.0
2018-Jun-13 09:23N 41°11' W 008°41'0 0.0
2018-Jun-13 08:59N 41°11' W 008°41'0 0.0
2018-Jun-13 08:29N 41°11' W 008°41'0 0.0
2018-Jun-13 07:59N 41°11' W 008°41'0 0.0
2018-Jun-13 07:26N 41°11' W 008°41'0 0.0
2018-Jun-13 06:56N 41°11' W 008°41'0 0.0
2018-Jun-13 06:26N 41°11' W 008°41'0 0.0
2018-Jun-13 05:59N 41°11' W 008°41'0 0.0
2018-Jun-13 05:29N 41°11' W 008°41'0 0.0
2018-Jun-13 05:00N 41°11' W 008°41'0 0.0
2018-Jun-13 04:30N 41°11' W 008°41'0 0.0
2018-Jun-13 03:57N 41°11' W 008°41'0 0.0
2018-Jun-13 03:30N 41°11' W 008°41'0 0.0
2018-Jun-13 03:00N 41°11' W 008°41'0 0.0
2018-Jun-13 02:30N 41°11' W 008°41'0 0.0
2018-Jun-13 02:00N 41°11' W 008°41'0 0.0
2018-Jun-13 01:30N 41°11' W 008°41'0 0.0
2018-Jun-13 01:00N 41°11' W 008°41'0 0.0
2018-Jun-13 00:27N 41°11' W 008°41'0 0.0
2018-Jun-13 00:00N 41°11' W 008°41'0 0.0
2018-Jun-12 23:30N 41°11' W 008°41'0 0.0
2018-Jun-12 23:00N 41°11' W 008°41'0 0.0
2018-Jun-12 22:30N 41°11' W 008°41'0 0.3
2018-Jun-12 22:00N 41°11' W 008°41'2 3.2
2018-Jun-12 21:30N 41°10' W 008°42'2 3.0
2018-Jun-12 21:01N 41°09' W 008°44'0 0.5
2018-Jun-12 20:29N 41°09' W 008°44'1 1.8
2018-Jun-12 20:01N 41°08' W 008°45'2 4.1
2018-Jun-12 19:30N 41°06' W 008°46'1 1.1
2018-Jun-12 19:00N 41°06' W 008°46'2 4.5
2018-Jun-12 18:29N 41°08' W 008°47'0 0.3
2018-Jun-12 17:52N 41°08' W 008°47'0 0.0
2018-Jun-12 17:28N 41°08' W 008°47'0 0.0
2018-Jun-12 16:58N 41°08' W 008°47'0 0.0
2018-Jun-12 16:28N 41°08' W 008°47'0 0.0
2018-Jun-12 15:58N 41°08' W 008°47'0 0.0
2018-Jun-12 15:25N 41°08' W 008°47'0 0.0
2018-Jun-12 14:55N 41°08' W 008°47'0 0.0
2018-Jun-12 14:16N 41°08' W 008°47'0 0.0
2018-Jun-12 13:52N 41°08' W 008°47'0 0.0
2018-Jun-12 13:25N 41°08' W 008°47'0 0.0
2018-Jun-12 12:58N 41°08' W 008°47'0 0.0
2018-Jun-12 12:28N 41°08' W 008°47'0 0.0
2018-Jun-12 11:58N 41°08' W 008°47'0 0.0
2018-Jun-12 11:25N 41°08' W 008°47'0 0.0
2018-Jun-12 10:34N 41°08' W 008°47'0 0.1
2018-Jun-12 10:28N 41°08' W 008°47'0 0.0
2018-Jun-12 09:58N 41°08' W 008°47'0 0.0
2018-Jun-12 09:22N 41°08' W 008°47'0 0.0
2018-Jun-12 08:55N 41°08' W 008°47'0 0.0
2018-Jun-12 08:28N 41°08' W 008°47'0 0.0
2018-Jun-12 07:55N 41°08' W 008°47'0 0.0
2018-Jun-12 07:25N 41°08' W 008°47'0 0.0
2018-Jun-12 06:49N 41°08' W 008°47'0 0.0
2018-Jun-12 06:28N 41°08' W 008°47'0 0.0
2018-Jun-12 05:58N 41°08' W 008°47'0 0.0
2018-Jun-12 05:28N 41°08' W 008°47'0 0.0
2018-Jun-12 04:55N 41°08' W 008°47'0 0.0
2018-Jun-12 04:28N 41°08' W 008°47'0 0.0
2018-Jun-12 03:58N 41°08' W 008°47'0 0.0
2018-Jun-12 03:13N 41°08' W 008°47'0 0.0
2018-Jun-12 02:58N 41°08' W 008°47'0 0.0
2018-Jun-12 02:28N 41°08' W 008°47'0 0.0
2018-Jun-12 01:43N 41°08' W 008°47'0 0.0
2018-Jun-12 01:19N 41°08' W 008°47'0 0.0
2018-Jun-11 22:31N 41°08' W 008°47'0 0.0
2018-Jun-11 22:04N 41°08' W 008°47'0 0.0
2018-Jun-11 21:49N 41°08' W 008°47'0 0.0
2018-Jun-11 21:28N 41°08' W 008°47'0 0.0
2018-Jun-11 18:34N 41°08' W 008°47'0 0.0
2018-Jun-11 18:07N 41°08' W 008°47'0 0.0
2018-Jun-11 17:40N 41°08' W 008°47'0 0.0
2018-Jun-11 17:28N 41°08' W 008°47'0 0.0
2018-Jun-11 16:52N 41°08' W 008°47'0 0.0
2018-Jun-11 16:19N 41°08' W 008°47'0 0.0
2018-Jun-11 15:58N 41°08' W 008°47'0 0.0
2018-Jun-11 15:28N 41°08' W 008°47'0 0.0
2018-Jun-11 14:55N 41°08' W 008°47'0 0.0
2018-Jun-11 14:25N 41°08' W 008°47'0 0.0
2018-Jun-11 13:58N 41°08' W 008°47'0 0.0
2018-Jun-11 13:25N 41°08' W 008°47'0 0.0
2018-Jun-11 12:58N 41°08' W 008°47'0 0.0
2018-Jun-11 12:25N 41°08' W 008°47'0 0.0
2018-Jun-11 11:49N 41°08' W 008°47'0 0.0
2018-Jun-11 11:22N 41°08' W 008°47'0 0.1
2018-Jun-11 10:58N 41°08' W 008°47'0 0.0
2018-Jun-11 10:25N 41°08' W 008°47'0 0.0
2018-Jun-11 09:58N 41°08' W 008°47'0 0.0
2018-Jun-11 09:19N 41°08' W 008°47'0 0.1
2018-Jun-11 08:58N 41°08' W 008°47'0 0.0
2018-Jun-11 08:28N 41°08' W 008°47'0 0.0
2018-Jun-11 07:52N 41°08' W 008°47'0 0.0
2018-Jun-11 07:25N 41°08' W 008°47'0 0.1
2018-Jun-11 06:55N 41°08' W 008°47'0 0.0
2018-Jun-11 06:28N 41°08' W 008°47'0 0.1
2018-Jun-11 05:58N 41°08' W 008°47'0 0.0
2018-Jun-11 05:28N 41°08' W 008°47'0 0.0
2018-Jun-11 04:58N 41°08' W 008°47'0 0.1
2018-Jun-11 04:28N 41°08' W 008°47'2 3.5
2018-Jun-11 03:57N 41°10' W 008°47'4 8.8
2018-Jun-11 03:29N 41°14' W 008°49'  
Track history (hours):
 
Tides and Currents Weather Stations Pressure Air Temp Water Temp Dewpoint Dewpoint Depression Visibility Wind Speed Wind Dir Waves Ship Positions

Angon

Last reported at 2018-Jun-19 01:01 UTC. Time now 2018-Jun-19 01:22 UTC.
Position N 45°57' W 002°17'.

Length 89 m; draft 4.9 m.

Type: Ship. MMSI: 255802380.

Date/timePositionNaut miles runAvg speedWind from/ knotsBaromVisibWave heightAir tempDewpointWater temp
2018-Jun-19 01:01N 45°57' W 002°17'5 9.1
2018-Jun-19 00:27N 45°55' W 002°24'4 9.2
2018-Jun-19 00:01N 45°54' W 002°29'5 9.1
2018-Jun-18 23:29N 45°52' W 002°36'16 8.9
2018-Jun-18 21:42N 45°45' W 002°57'3 8.7
2018-Jun-18 21:24N 45°44' W 002°60'3 8.8
2018-Jun-18 21:00N 45°43' W 003°05'6 8.7
2018-Jun-18 20:21N 45°40' W 003°12'  
2018-Jun-14 15:39N 41°07' W 008°46'1 5.8
2018-Jun-14 15:27N 41°08' W 008°45'3 5.7
2018-Jun-14 15:00N 41°10' W 008°43'2 3.6
2018-Jun-14 14:30N 41°11' W 008°41'0 0.0
2018-Jun-14 13:59N 41°11' W 008°41'0 0.0
2018-Jun-14 13:29N 41°11' W 008°41'0 0.0
2018-Jun-14 12:59N 41°11' W 008°41'0 0.0
2018-Jun-14 12:29N 41°11' W 008°41'0 0.0
2018-Jun-14 11:53N 41°11' W 008°41'0 0.0
2018-Jun-14 11:26N 41°11' W 008°41'0 0.0
2018-Jun-14 10:59N 41°11' W 008°41'0 0.0
2018-Jun-14 10:29N 41°11' W 008°41'0 0.0
2018-Jun-14 09:59N 41°11' W 008°41'0 0.0
2018-Jun-14 09:29N 41°11' W 008°41'0 0.0
2018-Jun-14 08:59N 41°11' W 008°41'0 0.0
2018-Jun-14 08:29N 41°11' W 008°41'0 0.0
2018-Jun-14 07:59N 41°11' W 008°41'0 0.0
2018-Jun-14 07:29N 41°11' W 008°41'0 0.0
2018-Jun-14 06:59N 41°11' W 008°41'0 0.0
2018-Jun-14 06:29N 41°11' W 008°41'0 0.0
2018-Jun-14 05:59N 41°11' W 008°41'0 0.0
2018-Jun-14 05:29N 41°11' W 008°41'0 0.0
2018-Jun-14 04:56N 41°11' W 008°41'0 0.0
2018-Jun-14 04:29N 41°11' W 008°41'0 0.0
2018-Jun-14 03:59N 41°11' W 008°41'0 0.0
2018-Jun-14 03:26N 41°11' W 008°41'0 0.0
2018-Jun-14 02:56N 41°11' W 008°41'0 0.0
2018-Jun-14 02:29N 41°11' W 008°41'0 0.0
2018-Jun-14 01:59N 41°11' W 008°41'0 0.0
2018-Jun-14 01:29N 41°11' W 008°41'0 0.0
2018-Jun-14 00:56N 41°11' W 008°41'0 0.0
2018-Jun-14 00:29N 41°11' W 008°41'0 0.0
2018-Jun-13 23:59N 41°11' W 008°41'0 0.0
2018-Jun-13 23:17N 41°11' W 008°41'0 0.0
2018-Jun-13 22:53N 41°11' W 008°41'0 0.0
2018-Jun-13 22:29N 41°11' W 008°41'0 0.0
2018-Jun-13 21:56N 41°11' W 008°41'0 0.0
2018-Jun-13 21:29N 41°11' W 008°41'0 0.0
2018-Jun-13 20:56N 41°11' W 008°41'0 0.0
2018-Jun-13 20:29N 41°11' W 008°41'0 0.0
2018-Jun-13 19:59N 41°11' W 008°41'0 0.0
2018-Jun-13 19:29N 41°11' W 008°41'0 0.0
2018-Jun-13 18:56N 41°11' W 008°41'0 0.0
2018-Jun-13 18:26N 41°11' W 008°41'0 0.0
2018-Jun-13 17:56N 41°11' W 008°41'0 0.0
2018-Jun-13 17:26N 41°11' W 008°41'0 0.0
2018-Jun-13 16:56N 41°11' W 008°41'0 0.0
2018-Jun-13 16:29N 41°11' W 008°41'0 0.0
2018-Jun-13 15:59N 41°11' W 008°41'0 0.0
2018-Jun-13 15:26N 41°11' W 008°41'0 0.0
2018-Jun-13 14:56N 41°11' W 008°41'0 0.0
2018-Jun-13 14:29N 41°11' W 008°41'0 0.0
2018-Jun-13 13:59N 41°11' W 008°41'0 0.0
2018-Jun-13 13:29N 41°11' W 008°41'0 0.0
2018-Jun-13 12:59N 41°11' W 008°41'0 0.0
2018-Jun-13 12:26N 41°11' W 008°41'0 0.0
2018-Jun-13 11:56N 41°11' W 008°41'0 0.0
2018-Jun-13 11:29N 41°11' W 008°41'0 0.0
2018-Jun-13 10:50N 41°11' W 008°41'0 0.0
2018-Jun-13 10:26N 41°11' W 008°41'0 0.0
2018-Jun-13 09:59N 41°11' W 008°41'0 0.0
2018-Jun-13 09:23N 41°11' W 008°41'0 0.0
2018-Jun-13 08:59N 41°11' W 008°41'0 0.0
2018-Jun-13 08:29N 41°11' W 008°41'0 0.0
2018-Jun-13 07:59N 41°11' W 008°41'0 0.0
2018-Jun-13 07:26N 41°11' W 008°41'0 0.0
2018-Jun-13 06:56N 41°11' W 008°41'0 0.0
2018-Jun-13 06:26N 41°11' W 008°41'0 0.0
2018-Jun-13 05:59N 41°11' W 008°41'0 0.0
2018-Jun-13 05:29N 41°11' W 008°41'0 0.0
2018-Jun-13 05:00N 41°11' W 008°41'0 0.0
2018-Jun-13 04:30N 41°11' W 008°41'0 0.0
2018-Jun-13 03:57N 41°11' W 008°41'0 0.0
2018-Jun-13 03:30N 41°11' W 008°41'0 0.0
2018-Jun-13 03:00N 41°11' W 008°41'0 0.0
2018-Jun-13 02:30N 41°11' W 008°41'0 0.0
2018-Jun-13 02:00N 41°11' W 008°41'0 0.0
2018-Jun-13 01:30N 41°11' W 008°41'0 0.0
2018-Jun-13 01:00N 41°11' W 008°41'0 0.0
2018-Jun-13 00:27N 41°11' W 008°41'0 0.0
2018-Jun-13 00:00N 41°11' W 008°41'0 0.0
2018-Jun-12 23:30N 41°11' W 008°41'0 0.0
2018-Jun-12 23:00N 41°11' W 008°41'0 0.0
2018-Jun-12 22:30N 41°11' W 008°41'0 0.3
2018-Jun-12 22:00N 41°11' W 008°41'2 3.2
2018-Jun-12 21:30N 41°10' W 008°42'2 3.0
2018-Jun-12 21:01N 41°09' W 008°44'0 0.5
2018-Jun-12 20:29N 41°09' W 008°44'1 1.8
2018-Jun-12 20:01N 41°08' W 008°45'2 4.1
2018-Jun-12 19:30N 41°06' W 008°46'1 1.1
2018-Jun-12 19:00N 41°06' W 008°46'2 4.5
2018-Jun-12 18:29N 41°08' W 008°47'0 0.3
2018-Jun-12 17:52N 41°08' W 008°47'0 0.0
2018-Jun-12 17:28N 41°08' W 008°47'0 0.0
2018-Jun-12 16:58N 41°08' W 008°47'0 0.0
2018-Jun-12 16:28N 41°08' W 008°47'0 0.0
2018-Jun-12 15:58N 41°08' W 008°47'0 0.0
2018-Jun-12 15:25N 41°08' W 008°47'0 0.0
2018-Jun-12 14:55N 41°08' W 008°47'0 0.0
2018-Jun-12 14:16N 41°08' W 008°47'0 0.0
2018-Jun-12 13:52N 41°08' W 008°47'0 0.0
2018-Jun-12 13:25N 41°08' W 008°47'0 0.0
2018-Jun-12 12:58N 41°08' W 008°47'0 0.0
2018-Jun-12 12:28N 41°08' W 008°47'0 0.0
2018-Jun-12 11:58N 41°08' W 008°47'0 0.0
2018-Jun-12 11:25N 41°08' W 008°47'0 0.0
2018-Jun-12 10:34N 41°08' W 008°47'0 0.1
2018-Jun-12 10:28N 41°08' W 008°47'0 0.0
2018-Jun-12 09:58N 41°08' W 008°47'0 0.0
2018-Jun-12 09:22N 41°08' W 008°47'0 0.0
2018-Jun-12 08:55N 41°08' W 008°47'0 0.0
2018-Jun-12 08:28N 41°08' W 008°47'0 0.0
2018-Jun-12 07:55N 41°08' W 008°47'0 0.0
2018-Jun-12 07:25N 41°08' W 008°47'0 0.0
2018-Jun-12 06:49N 41°08' W 008°47'0 0.0
2018-Jun-12 06:28N 41°08' W 008°47'0 0.0
2018-Jun-12 05:58N 41°08' W 008°47'0 0.0
2018-Jun-12 05:28N 41°08' W 008°47'0 0.0
2018-Jun-12 04:55N 41°08' W 008°47'0 0.0
2018-Jun-12 04:28N 41°08' W 008°47'0 0.0
2018-Jun-12 03:58N 41°08' W 008°47'0 0.0
2018-Jun-12 03:13N 41°08' W 008°47'0 0.0
2018-Jun-12 02:58N 41°08' W 008°47'0 0.0
2018-Jun-12 02:28N 41°08' W 008°47'0 0.0
2018-Jun-12 01:43N 41°08' W 008°47'0 0.0
2018-Jun-12 01:19N 41°08' W 008°47'0 0.0
2018-Jun-11 22:31N 41°08' W 008°47'0 0.0
2018-Jun-11 22:04N 41°08' W 008°47'0 0.0
2018-Jun-11 21:49N 41°08' W 008°47'0 0.0
2018-Jun-11 21:28N 41°08' W 008°47'0 0.0
2018-Jun-11 18:34N 41°08' W 008°47'0 0.0
2018-Jun-11 18:07N 41°08' W 008°47'0 0.0
2018-Jun-11 17:40N 41°08' W 008°47'0 0.0
2018-Jun-11 17:28N 41°08' W 008°47'0 0.0
2018-Jun-11 16:52N 41°08' W 008°47'0 0.0
2018-Jun-11 16:19N 41°08' W 008°47'0 0.0
2018-Jun-11 15:58N 41°08' W 008°47'0 0.0
2018-Jun-11 15:28N 41°08' W 008°47'0 0.0
2018-Jun-11 14:55N 41°08' W 008°47'0 0.0
2018-Jun-11 14:25N 41°08' W 008°47'0 0.0
2018-Jun-11 13:58N 41°08' W 008°47'0 0.0
2018-Jun-11 13:25N 41°08' W 008°47'0 0.0
2018-Jun-11 12:58N 41°08' W 008°47'0 0.0
2018-Jun-11 12:25N 41°08' W 008°47'0 0.0
2018-Jun-11 11:49N 41°08' W 008°47'0 0.0
2018-Jun-11 11:22N 41°08' W 008°47'0 0.1
2018-Jun-11 10:58N 41°08' W 008°47'0 0.0
2018-Jun-11 10:25N 41°08' W 008°47'0 0.0
2018-Jun-11 09:58N 41°08' W 008°47'0 0.0
2018-Jun-11 09:19N 41°08' W 008°47'0 0.1
2018-Jun-11 08:58N 41°08' W 008°47'0 0.0
2018-Jun-11 08:28N 41°08' W 008°47'0 0.0
2018-Jun-11 07:52N 41°08' W 008°47'0 0.0
2018-Jun-11 07:25N 41°08' W 008°47'0 0.1
2018-Jun-11 06:55N 41°08' W 008°47'0 0.0
2018-Jun-11 06:28N 41°08' W 008°47'0 0.1
2018-Jun-11 05:58N 41°08' W 008°47'0 0.0
2018-Jun-11 05:28N 41°08' W 008°47'0 0.0
2018-Jun-11 04:58N 41°08' W 008°47'0 0.1
2018-Jun-11 04:28N 41°08' W 008°47'2 3.5
2018-Jun-11 03:57N 41°10' W 008°47'4 8.8
2018-Jun-11 03:29N 41°14' W 008°49'  

Dump ship's entire track history